Time;durP1;ratioP1;P1;durP2;ratioP2;P2;SDS_P1;SDS_P2;PMS_P1;PMS_P2;Temp;Humidity;BMP_temperature;BMP_pressure;BME280_temperature;BME280_humidity;BME280_pressure;Samples;Min_cycle;Max_cycle;Signal;HPM_P1;HPM_P2
2022/06/13 00:01:52;;;;;;;14.95;4.22;;;13.20;91.00;;;;;;5009955;28;20026;-55
2022/06/13 00:04:18;;;;;;;12.68;4.18;;;13.10;90.50;;;;;;5010851;28;20042;-59
2022/06/13 00:06:43;;;;;;;14.10;4.35;;;13.10;91.20;;;;;;5010257;28;20080;-52
2022/06/13 00:09:10;;;;;;;14.45;4.10;;;13.10;91.30;;;;;;5012649;28;20065;-49
2022/06/13 00:11:36;;;;;;;11.90;4.55;;;13.00;91.20;;;;;;5010089;28;20113;-53
2022/06/13 00:14:02;;;;;;;14.75;4.05;;;13.00;91.70;;;;;;5008639;28;20075;-58
2022/06/13 00:16:29;;;;;;;14.13;4.60;;;13.00;91.20;;;;;;5011259;28;20445;-57
2022/06/13 00:18:55;;;;;;;12.18;3.42;;;13.00;91.60;;;;;;5010312;28;20064;-58
2022/06/13 00:21:28;;;;;;;15.70;4.20;;;13.00;91.90;;;;;;5009625;28;20052;-53
2022/06/13 00:23:54;;;;;;;13.77;4.25;;;12.90;91.50;;;;;;5009818;28;20061;-49
2022/06/13 00:26:22;;;;;;;15.20;4.90;;;12.90;92.00;;;;;;5010425;28;20022;-55
2022/06/13 00:28:48;;;;;;;11.75;3.90;;;12.80;91.90;;;;;;5009811;28;20548;-55
2022/06/13 00:31:14;;;;;;;12.48;3.90;;;12.80;92.20;;;;;;5010181;28;20021;-54
2022/06/13 00:33:40;;;;;;;19.23;4.70;;;12.80;92.10;;;;;;5010569;28;20021;-55
2022/06/13 00:36:06;;;;;;;13.73;3.90;;;12.70;92.10;;;;;;5010036;28;20477;-59
2022/06/13 00:38:32;;;;;;;15.13;4.80;;;12.70;92.50;;;;;;5007501;28;20076;-53
2022/06/13 00:40:58;;;;;;;14.52;3.97;;;12.70;92.30;;;;;;5009858;28;20018;-49
2022/06/13 00:43:23;;;;;;;12.65;4.18;;;12.70;92.60;;;;;;5009998;28;20439;-52
2022/06/13 00:45:49;;;;;;;10.57;3.67;;;12.60;92.50;;;;;;5009041;28;20229;-52
2022/06/13 00:48:18;;;;;;;16.35;4.50;;;12.60;92.70;;;;;;5009762;28;20033;-53
2022/06/13 00:50:57;;;;;;;13.13;4.18;;;12.60;92.40;;;;;;5007718;28;20030;-55
2022/06/13 00:53:27;;;;;;;17.98;5.38;;;12.60;92.70;;;;;;5010556;28;20032;-49
2022/06/13 00:56:16;;;;;;;14.25;4.32;;;12.50;92.70;;;;;;5009372;28;20022;-52
2022/06/13 00:58:48;;;;;;;15.10;4.28;;;12.50;92.70;;;;;;5010001;28;20022;-48
2022/06/13 01:01:14;;;;;;;12.70;4.03;;;12.40;92.70;;;;;;5008645;28;20108;-45
2022/06/13 01:03:43;;;;;;;12.57;4.28;;;12.50;92.90;;;;;;5008936;28;20030;-45
2022/06/13 01:06:09;;;;;;;12.30;4.05;;;12.40;92.90;;;;;;5009683;28;20096;-56
2022/06/13 01:08:37;;;;;;;17.80;4.45;;;12.40;92.90;;;;;;5010302;28;20493;-48
2022/06/13 01:11:19;;;;;;;19.40;4.10;;;12.40;93.00;;;;;;5009106;28;20106;-45
2022/06/13 01:14:09;;;;;;;13.50;4.43;;;12.30;92.80;;;;;;5008546;28;20030;-53
2022/06/13 01:16:41;;;;;;;11.98;3.83;;;12.30;93.40;;;;;;5006655;28;20037;-51
2022/06/13 01:19:25;;;;;;;14.48;4.18;;;12.30;93.10;;;;;;5009964;28;20087;-52
2022/06/13 01:22:25;;;;;;;12.07;4.20;;;12.30;93.50;;;;;;5009592;28;20021;-53
2022/06/13 01:25:11;;;;;;;12.52;4.45;;;12.20;93.30;;;;;;5010256;28;20036;-48
2022/06/13 01:27:40;;;;;;;11.15;3.60;;;12.20;93.50;;;;;;5006715;28;20022;-50
2022/06/13 01:30:27;;;;;;;14.73;4.32;;;12.20;93.50;;;;;;5009315;28;20029;-45
2022/06/13 01:33:34;;;;;;;11.88;4.13;;;12.10;93.40;;;;;;5009303;28;20076;-55
2022/06/13 01:36:38;;;;;;;16.40;4.80;;;12.10;93.80;;;;;;5005959;28;20018;-46
2022/06/13 01:39:13;;;;;;;11.55;4.13;;;12.00;93.90;;;;;;5010913;28;20046;-51
2022/06/13 01:41:57;;;;;;;15.32;4.47;;;12.00;93.80;;;;;;5011366;28;20030;-46
2022/06/13 01:44:33;;;;;;;12.20;4.93;;;12.00;93.80;;;;;;5011648;28;20053;-48
2022/06/13 01:47:28;;;;;;;12.60;3.90;;;12.00;93.70;;;;;;5010915;28;20033;-48
2022/06/13 01:50:12;;;;;;;15.38;4.30;;;11.90;93.80;;;;;;5011522;28;20540;-57
2022/06/13 01:53:05;;;;;;;12.35;4.25;;;11.90;93.70;;;;;;5011495;28;20017;-55
2022/06/13 01:55:54;;;;;;;11.02;4.15;;;11.90;93.90;;;;;;5011259;28;20022;-56
2022/06/13 01:58:41;;;;;;;14.32;4.22;;;11.80;94.20;;;;;;5011154;28;20381;-58
2022/06/13 02:01:21;;;;;;;15.93;4.47;;;11.80;94.10;;;;;;5010940;28;20393;-46
2022/06/13 02:04:06;;;;;;;13.88;4.60;;;11.70;94.00;;;;;;5011034;28;20042;-56
2022/06/13 02:06:36;;;;;;;15.55;4.68;;;11.70;94.30;;;;;;5011353;28;20033;-59
2022/06/13 02:09:11;;;;;;;12.85;4.57;;;11.70;94.50;;;;;;5008054;28;20092;-58
2022/06/13 02:11:44;;;;;;;13.45;4.35;;;11.70;94.30;;;;;;5011117;28;20021;-57
2022/06/13 02:14:13;;;;;;;9.05;3.95;;;11.60;94.40;;;;;;5011118;28;20022;-50
2022/06/13 02:17:10;;;;;;;12.07;4.10;;;11.60;94.40;;;;;;5010757;28;20029;-50
2022/06/13 02:19:50;;;;;;;10.32;3.83;;;11.60;94.50;;;;;;4992533;28;20034;-58
2022/06/13 02:22:45;;;;;;;15.35;4.35;;;11.60;94.50;;;;;;5011169;28;20026;-54
2022/06/13 02:25:31;;;;;;;13.48;4.07;;;11.50;94.60;;;;;;5010900;28;20400;-52
2022/06/13 02:28:09;;;;;;;15.35;4.10;;;11.50;94.50;;;;;;5010463;28;20052;-51
2022/06/13 02:30:49;;;;;;;14.15;4.13;;;11.60;94.30;;;;;;5010934;28;20124;-56
2022/06/13 02:33:27;;;;;;;;;;;11.50;94.30;;;;;;5011248;28;20452;-45
2022/06/13 02:36:02;;;;;;;14.52;4.35;;;11.40;94.40;;;;;;5010940;28;19914;-54
2022/06/13 02:38:55;;;;;;;15.30;4.90;;;11.40;94.50;;;;;;5010652;28;20469;-45
2022/06/13 02:41:24;;;;;;;12.00;4.00;;;11.30;94.40;;;;;;5008337;28;20113;-50
2022/06/13 02:43:57;;;;;;;11.85;4.10;;;11.20;94.70;;;;;;5010832;28;20026;-45
2022/06/13 02:46:43;;;;;;;9.77;3.90;;;11.10;94.80;;;;;;5010586;28;20105;-53
2022/06/13 02:49:14;;;;;;;11.30;4.22;;;11.00;94.80;;;;;;5000743;28;20037;-55
2022/06/13 02:51:55;;;;;;;9.07;4.28;;;10.90;95.20;;;;;;5010713;28;20057;-55
2022/06/13 02:54:29;;;;;;;9.43;4.18;;;10.90;95.30;;;;;;5010780;28;20030;-54
2022/06/13 02:57:27;;;;;;;11.77;3.88;;;10.90;95.50;;;;;;5010241;28;20030;-55
2022/06/13 03:00:14;;;;;;;13.43;4.47;;;10.90;95.50;;;;;;5010586;28;20078;-47
2022/06/13 03:02:57;;;;;;;15.00;4.95;;;10.80;95.30;;;;;;5010720;28;20187;-48
2022/06/13 03:05:57;;;;;;;11.30;3.83;;;10.80;95.60;;;;;;5010277;28;20041;-49
2022/06/13 03:08:41;;;;;;;12.93;4.35;;;10.80;95.50;;;;;;5010146;28;20069;-52
2022/06/13 03:11:09;;;;;;;12.43;4.47;;;10.80;95.70;;;;;;5010619;28;20048;-49
2022/06/13 03:13:46;;;;;;;13.38;4.68;;;10.80;95.80;;;;;;5011908;28;20109;-49
2022/06/13 03:16:24;;;;;;;13.50;4.80;;;10.80;96.00;;;;;;5014249;28;20022;-51
2022/06/13 03:18:55;;;;;;;12.77;4.78;;;10.80;95.90;;;;;;5013555;28;20030;-49
2022/06/13 03:21:30;;;;;;;13.07;4.07;;;10.80;95.90;;;;;;5014147;28;20477;-51
2022/06/13 03:24:03;;;;;;;12.90;4.13;;;10.80;95.80;;;;;;5013673;28;20045;-53
2022/06/13 03:26:37;;;;;;;16.42;4.82;;;10.70;95.70;;;;;;5013972;28;20064;-50
2022/06/13 03:29:15;;;;;;;15.05;4.63;;;10.70;95.80;;;;;;5010198;28;20030;-49
2022/06/13 03:31:47;;;;;;;13.02;4.70;;;10.60;96.10;;;;;;5013779;28;20109;-48
2022/06/13 03:34:18;;;;;;;12.13;4.18;;;10.50;95.90;;;;;;5013644;28;20057;-49
2022/06/13 03:36:49;;;;;;;12.02;4.25;;;10.60;96.00;;;;;;5012847;28;20361;-45
2022/06/13 03:39:47;;;;;;;16.40;4.82;;;10.60;96.20;;;;;;5013656;28;20053;-53
2022/06/13 03:42:18;;;;;;;12.85;4.00;;;10.60;96.20;;;;;;4997192;28;20500;-48
2022/06/13 03:44:53;;;;;;;13.88;4.35;;;10.60;96.30;;;;;;5013307;28;20037;-55
2022/06/13 03:47:30;;;;;;;10.25;3.60;;;10.60;96.30;;;;;;5013342;28;20460;-56
2022/06/13 03:50:02;;;;;;;12.77;4.25;;;10.70;96.20;;;;;;5013247;28;20038;-48
2022/06/13 03:52:32;;;;;;;12.98;4.40;;;10.60;96.00;;;;;;5013569;28;20101;-45
2022/06/13 03:55:01;;;;;;;;;;;10.60;96.20;;;;;;5013717;28;20069;-45
2022/06/13 03:57:51;;;;;;;15.82;5.00;;;10.60;96.10;;;;;;5013117;28;19910;-46
2022/06/13 04:00:25;;;;;;;11.75;4.57;;;10.60;96.10;;;;;;5013011;28;20428;-47
2022/06/13 04:02:53;;;;;;;10.30;4.10;;;10.60;96.30;;;;;;5013296;28;20026;-56
2022/06/13 04:05:36;;;;;;;15.75;5.45;;;10.60;96.40;;;;;;5012998;28;20872;-50
2022/06/13 04:08:04;;;;;;;12.65;4.68;;;10.60;96.60;;;;;;5011472;28;20033;-57
2022/06/13 04:10:39;;;;;;;11.38;4.05;;;10.60;96.60;;;;;;5013221;28;20037;-48
2022/06/13 04:13:09;;;;;;;12.50;4.40;;;10.60;96.50;;;;;;5027562;28;20025;-50
2022/06/13 04:15:59;;;;;;;13.20;4.85;;;10.70;96.80;;;;;;5012847;28;20077;-51
2022/06/13 04:18:52;;;;;;;16.55;5.18;;;10.70;96.60;;;;;;5012583;28;20029;-48
2022/06/13 04:21:48;;;;;;;14.98;4.18;;;10.70;96.70;;;;;;5012894;28;20038;-52
2022/06/13 04:24:53;;;;;;;16.60;5.38;;;10.80;96.60;;;;;;5012613;28;20506;-49
2022/06/13 04:27:18;;;;;;;12.65;5.00;;;10.80;96.60;;;;;;5012362;28;20034;-44
2022/06/13 04:29:59;;;;;;;8.75;4.32;;;10.80;96.60;;;;;;5012742;28;20034;-48
2022/06/13 04:32:36;;;;;;;16.52;4.53;;;10.90;96.60;;;;;;5012615;28;20033;-46
2022/06/13 04:35:04;;;;;;;12.27;4.50;;;10.90;96.40;;;;;;5012557;28;20022;-49
2022/06/13 04:37:30;;;;;;;11.25;4.50;;;10.90;96.50;;;;;;5012362;28;20030;-53
2022/06/13 04:40:00;;;;;;;15.65;5.18;;;11.00;96.50;;;;;;5027482;28;20032;-54
2022/06/13 04:42:30;;;;;;;11.63;5.05;;;11.00;96.50;;;;;;5012277;28;20393;-49
2022/06/13 04:45:00;;;;;;;15.10;4.85;;;11.00;96.40;;;;;;5012326;28;20120;-53
2022/06/13 04:47:27;;;;;;;14.88;5.10;;;11.00;96.50;;;;;;5012014;28;20025;-53
2022/06/13 04:49:58;;;;;;;12.77;4.32;;;11.10;96.50;;;;;;5011948;28;20431;-46
2022/06/13 04:52:29;;;;;;;16.92;5.05;;;11.10;96.00;;;;;;5012334;28;20026;-54
2022/06/13 04:55:14;;;;;;;9.80;4.18;;;11.30;96.50;;;;;;5012280;28;20026;-54
2022/06/13 04:57:40;;;;;;;11.90;4.15;;;11.90;96.10;;;;;;5012121;28;20060;-61
2022/06/13 05:00:08;;;;;;;12.07;4.28;;;12.80;93.80;;;;;;5012097;28;20065;-56
2022/06/13 05:02:40;;;;;;;11.18;3.35;;;13.60;92.10;;;;;;5012285;28;20136;-51
2022/06/13 05:05:22;;;;;;;9.52;4.18;;;14.30;90.30;;;;;;5012025;28;20687;-51
2022/06/13 05:07:48;;;;;;;9.90;3.25;;;14.90;87.70;;;;;;5011796;28;20458;-57
2022/06/13 05:10:18;;;;;;;8.55;3.17;;;15.30;86.00;;;;;;5011867;28;20073;-48
2022/06/13 05:12:45;;;;;;;8.65;3.15;;;15.50;83.70;;;;;;5009967;28;20239;-44
2022/06/13 05:15:22;;;;;;;8.70;3.28;;;15.60;83.30;;;;;;5010973;28;20069;-44
2022/06/13 05:17:59;;;;;;;10.48;3.92;;;15.60;83.90;;;;;;5005179;28;20073;-57
2022/06/13 05:21:06;;;;;;;10.55;3.80;;;15.20;83.10;;;;;;4998281;28;20018;-47
2022/06/13 05:23:59;;;;;;;10.57;3.88;;;14.90;85.20;;;;;;5011385;28;20026;-48
2022/06/13 05:26:29;;;;;;;13.70;4.05;;;14.60;85.70;;;;;;5009372;28;20096;-53
2022/06/13 05:28:57;;;;;;;11.60;3.50;;;14.40;87.80;;;;;;5011399;28;20420;-47
2022/06/13 05:31:23;;;;;;;11.90;3.40;;;14.20;88.80;;;;;;5010717;28;20409;-52
2022/06/13 05:33:51;;;;;;;12.70;3.95;;;14.00;89.50;;;;;;5011551;28;20057;-48
2022/06/13 05:36:23;;;;;;;10.73;3.45;;;14.10;90.10;;;;;;5010946;28;20054;-55
2022/06/13 05:38:58;;;;;;;11.75;4.00;;;14.00;90.00;;;;;;5009644;28;20034;-50
2022/06/13 05:41:24;;;;;;;11.15;3.67;;;14.10;90.60;;;;;;5009987;28;20065;-48
2022/06/13 05:43:50;;;;;;;13.65;3.45;;;14.30;90.10;;;;;;5011262;28;20116;-48
2022/06/13 05:46:28;;;;;;;6.72;3.30;;;14.50;89.10;;;;;;5011278;28;20026;-56
2022/06/13 05:48:54;;;;;;;11.40;3.40;;;14.80;87.40;;;;;;5010832;28;20032;-52
2022/06/13 05:51:20;;;;;;;12.38;3.80;;;15.20;85.70;;;;;;5011367;28;20095;-47
2022/06/13 05:53:46;;;;;;;10.32;3.20;;;16.00;83.60;;;;;;5011241;28;20053;-57
2022/06/13 05:56:12;;;;;;;11.38;3.53;;;16.80;81.50;;;;;;5006683;28;20044;-59
2022/06/13 05:58:38;;;;;;;8.00;3.17;;;17.60;78.80;;;;;;5010003;28;20053;-56
2022/06/13 06:01:05;;;;;;;11.90;3.53;;;18.30;74.10;;;;;;5010580;28;20092;-51
2022/06/13 06:03:31;;;;;;;9.88;3.50;;;18.90;74.80;;;;;;5009041;28;20025;-52
2022/06/13 06:05:59;;;;;;;9.75;2.90;;;19.50;68.60;;;;;;5010804;28;20508;-58
2022/06/13 06:08:30;;;;;;;8.07;2.75;;;20.10;67.60;;;;;;5010455;28;20042;-54
2022/06/13 06:10:57;;;;;;;8.52;2.60;;;20.80;66.30;;;;;;5011242;28;20040;-57
2022/06/13 06:13:25;;;;;;;7.90;2.60;;;21.30;66.20;;;;;;5011134;28;20030;-56
2022/06/13 06:15:52;;;;;;;7.18;2.80;;;21.80;63.10;;;;;;5009690;28;20014;-55
2022/06/13 06:18:18;;;;;;;9.23;2.58;;;22.10;62.10;;;;;;5009307;28;20026;-53
2022/06/13 06:20:44;;;;;;;6.30;2.30;;;22.40;60.30;;;;;;5008948;28;20046;-51
2022/06/13 06:23:12;;;;;;;7.00;2.50;;;22.60;58.00;;;;;;5009073;28;20057;-46
2022/06/13 06:25:39;;;;;;;6.18;2.22;;;22.70;56.60;;;;;;5008699;28;20054;-51
2022/06/13 06:28:05;;;;;;;8.25;2.42;;;23.20;59.60;;;;;;5007797;28;20409;-50
2022/06/13 06:30:32;;;;;;;8.48;2.75;;;23.50;56.60;;;;;;5009582;28;20033;-53
2022/06/13 06:32:58;;;;;;;9.13;2.63;;;23.80;55.40;;;;;;4997573;28;20029;-53
2022/06/13 06:35:26;;;;;;;7.05;2.30;;;24.10;52.40;;;;;;5010902;28;20029;-58
2022/06/13 06:37:53;;;;;;;7.25;2.47;;;24.10;54.10;;;;;;5010697;28;20022;-54
2022/06/13 06:40:22;;;;;;;8.77;2.78;;;24.30;51.90;;;;;;5010957;28;20087;-50
2022/06/13 06:42:48;;;;;;;7.03;2.50;;;24.60;53.60;;;;;;5010750;28;20109;-52
2022/06/13 06:45:14;;;;;;;9.65;3.33;;;25.00;54.00;;;;;;5010442;28;20160;-56
2022/06/13 06:47:40;;;;;;;7.82;2.88;;;25.20;49.70;;;;;;5010741;28;20087;-48
2022/06/13 06:50:14;;;;;;;8.57;3.20;;;25.30;49.40;;;;;;5014008;28;20104;-55
2022/06/13 06:52:41;;;;;;;8.18;3.40;;;25.20;47.20;;;;;;5014568;28;20025;-51
2022/06/13 07:00:45;;;;;;;9.25;3.42;;;25.90;46.00;;;;;;5014233;28;20041;-53
2022/06/13 07:03:11;;;;;;;8.50;3.28;;;26.40;49.30;;;;;;5014282;28;20021;-51
2022/06/13 07:05:36;;;;;;;9.48;3.13;;;27.00;47.30;;;;;;5013895;28;20038;-53
2022/06/13 07:08:02;;;;;;;8.60;2.50;;;27.30;46.90;;;;;;5013958;28;20041;-50
2022/06/13 07:10:28;;;;;;;7.70;1.95;;;27.60;45.60;;;;;;5014039;28;20544;-56
2022/06/13 07:12:53;;;;;;;9.00;1.95;;;27.90;44.90;;;;;;5014226;28;20026;-51
2022/06/13 07:15:20;;;;;;;9.00;2.78;;;27.90;42.60;;;;;;5013787;28;20018;-52
2022/06/13 07:17:45;;;;;;;7.30;1.85;;;28.10;42.70;;;;;;5014040;28;20029;-54
2022/06/13 07:20:12;;;;;;;7.88;2.35;;;28.30;44.40;;;;;;5013923;28;20141;-53
2022/06/13 07:22:45;;;;;;;6.28;2.17;;;28.20;41.60;;;;;;5013792;28;20021;-55
2022/06/13 07:25:16;;;;;;;6.25;1.85;;;28.50;43.20;;;;;;5013974;28;20037;-46
2022/06/13 07:27:42;;;;;;;6.50;2.03;;;28.30;43.20;;;;;;5013799;28;20014;-51
2022/06/13 07:30:09;;;;;;;6.15;2.00;;;28.60;41.60;;;;;;5013748;28;20121;-48
2022/06/13 07:32:34;;;;;;;6.10;2.17;;;28.50;41.90;;;;;;5013472;28;20037;-55
2022/06/13 07:35:02;;;;;;;6.35;1.73;;;28.90;42.30;;;;;;5013805;28;20516;-57
2022/06/13 07:40:13;;;;;;;4.55;1.23;;;29.20;40.80;;;;;;5013995;28;20033;-56
2022/06/13 07:42:52;;;;;;;5.95;1.65;;;29.50;39.20;;;;;;5012177;28;20531;-49
2022/06/13 07:45:23;;;;;;;6.68;1.30;;;30.10;39.40;;;;;;5012234;28;20394;-48
2022/06/13 07:47:49;;;;;;;4.43;1.52;;;30.10;40.50;;;;;;5013532;28;20033;-47
2022/06/13 07:50:17;;;;;;;4.13;1.20;;;30.40;39.60;;;;;;5013387;28;20095;-55
2022/06/13 07:52:43;;;;;;;4.63;1.40;;;30.90;39.50;;;;;;5012162;28;20428;-47
2022/06/13 07:55:09;;;;;;;5.60;1.52;;;31.10;36.10;;;;;;5013096;28;20061;-50
2022/06/13 07:57:36;;;;;;;4.53;1.17;;;30.90;37.60;;;;;;5004698;28;20478;-46
2022/06/13 08:00:04;;;;;;;3.30;1.30;;;30.80;35.20;;;;;;4996060;28;20061;-49
2022/06/13 08:02:31;;;;;;;5.25;1.23;;;30.60;34.10;;;;;;5001124;28;20117;-50
2022/06/13 08:04:57;;;;;;;4.07;1.25;;;30.70;36.40;;;;;;5011469;28;20049;-46
2022/06/13 08:07:23;;;;;;;4.75;1.00;;;30.40;36.40;;;;;;5009288;28;20401;-50
2022/06/13 08:09:49;;;;;;;4.43;1.13;;;30.20;35.80;;;;;;5000530;28;20121;-50
2022/06/13 08:12:17;;;;;;;2.40;1.00;;;30.60;37.50;;;;;;5010927;28;20535;-56
2022/06/13 08:14:47;;;;;;;3.83;1.10;;;30.60;38.20;;;;;;5013067;28;20018;-46
2022/06/13 08:17:18;;;;;;;3.22;1.10;;;30.20;33.80;;;;;;5011575;28;20088;-56
2022/06/13 08:19:44;;;;;;;3.95;1.10;;;30.50;41.00;;;;;;5012412;28;20030;-54
2022/06/13 08:22:09;;;;;;;3.60;0.90;;;30.50;37.10;;;;;;5012796;28;20025;-56
2022/06/13 08:24:35;;;;;;;3.30;1.00;;;30.50;36.50;;;;;;5012833;28;20068;-54
2022/06/13 08:27:01;;;;;;;5.28;1.02;;;30.50;33.80;;;;;;5012862;28;20141;-51
2022/06/13 08:29:26;;;;;;;2.67;0.90;;;30.00;34.80;;;;;;5011525;28;20030;-53
2022/06/13 08:31:52;;;;;;;6.18;1.05;;;29.90;34.90;;;;;;5012542;28;20025;-47
2022/06/13 08:34:19;;;;;;;3.15;1.00;;;29.90;35.20;;;;;;5012621;28;20132;-55
2022/06/13 08:36:46;;;;;;;2.70;0.98;;;29.90;34.00;;;;;;5012421;28;20026;-58
2022/06/13 08:39:12;;;;;;;6.22;1.67;;;29.10;35.60;;;;;;5008781;28;20121;-58
2022/06/13 08:41:44;;;;;;;4.13;0.90;;;29.00;39.00;;;;;;5012798;28;20096;-52
2022/06/13 08:44:22;;;;;;;6.30;1.05;;;29.40;37.40;;;;;;5012119;28;20038;-58
2022/06/13 08:47:14;;;;;;;5.43;1.20;;;29.30;37.00;;;;;;5012245;28;20034;-53
2022/06/13 08:49:51;;;;;;;4.45;1.27;;;28.30;34.60;;;;;;5012500;28;20026;-54
2022/06/13 08:52:34;;;;;;;6.20;1.05;;;27.70;37.50;;;;;;5012304;28;20030;-53
2022/06/13 08:55:02;;;;;;;2.85;0.93;;;27.30;39.70;;;;;;5012198;28;20042;-58
2022/06/13 08:57:31;;;;;;;1.98;0.75;;;27.70;44.00;;;;;;5012226;28;20501;-57
2022/06/13 09:00:10;;;;;;;2.38;0.70;;;28.00;38.10;;;;;;5011350;28;20026;-55
2022/06/13 09:02:49;;;;;;;3.35;0.93;;;28.30;37.50;;;;;;5010477;28;20022;-60
2022/06/13 09:05:21;;;;;;;3.30;0.77;;;28.00;36.00;;;;;;5009890;28;20135;-58
2022/06/13 09:07:51;;;;;;;3.30;1.00;;;27.10;36.00;;;;;;5009831;28;20073;-60
2022/06/13 09:10:25;;;;;;;;;;;27.00;41.20;;;;;;5009898;28;20046;-60
2022/06/13 09:13:07;;;;;;;3.30;0.90;;;27.50;37.80;;;;;;5010020;28;19905;-60
2022/06/13 09:15:44;;;;;;;4.22;0.90;;;27.80;38.70;;;;;;5010650;28;20424;-56
2022/06/13 09:18:18;;;;;;;3.10;0.80;;;28.40;41.20;;;;;;5011906;28;20021;-55
2022/06/13 09:20:57;;;;;;;3.22;0.90;;;28.70;33.30;;;;;;5011866;28;20018;-54
2022/06/13 09:23:58;;;;;;;2.45;0.93;;;28.80;38.10;;;;;;5010845;28;20109;-62
2022/06/13 09:26:27;;;;;;;4.15;1.10;;;29.20;35.90;;;;;;4972070;28;20068;-60
2022/06/13 09:29:15;;;;;;;3.58;0.90;;;29.50;37.90;;;;;;5011435;28;20100;-48
2022/06/13 09:31:45;;;;;;;2.47;0.90;;;28.70;37.00;;;;;;5008251;28;20021;-49
2022/06/13 09:34:30;;;;;;;2.90;0.82;;;28.00;37.40;;;;;;5011373;28;20026;-55
2022/06/13 09:37:00;;;;;;;3.28;0.80;;;28.10;37.10;;;;;;5011427;28;20029;-57
2022/06/13 09:39:26;;;;;;;3.70;0.90;;;27.70;34.10;;;;;;5011428;28;20021;-56
2022/06/13 09:42:24;;;;;;;4.18;1.10;;;27.10;35.20;;;;;;5011674;28;20342;-53
2022/06/13 09:45:04;;;;;;;4.45;1.00;;;26.70;41.10;;;;;;5011021;28;20034;-58
2022/06/13 09:47:51;;;;;;;2.17;0.90;;;27.40;42.30;;;;;;5011492;28;20026;-55
2022/06/13 09:50:22;;;;;;;4.10;0.75;;;27.00;38.70;;;;;;5011317;28;20435;-52
2022/06/13 09:53:04;;;;;;;3.58;1.02;;;27.30;37.80;;;;;;5011417;28;20540;-54
2022/06/13 09:55:49;;;;;;;4.63;0.82;;;27.20;38.20;;;;;;5010536;28;20026;-47
2022/06/13 09:58:52;;;;;;;2.42;0.90;;;27.10;38.50;;;;;;5008445;28;20100;-52
2022/06/13 10:01:17;;;;;;;5.18;1.10;;;27.50;41.50;;;;;;5011220;28;20064;-47
2022/06/13 10:04:04;;;;;;;3.10;1.00;;;27.70;39.20;;;;;;5011014;28;20433;-48
2022/06/13 10:06:33;;;;;;;4.20;1.30;;;26.90;36.80;;;;;;5004110;28;20115;-46
2022/06/13 10:09:25;;;;;;;4.20;1.10;;;26.10;38.20;;;;;;5010734;28;20490;-43
2022/06/13 10:12:32;;;;;;;3.08;1.15;;;25.20;42.70;;;;;;5005892;28;20123;-42
2022/06/13 10:15:12;;;;;;;4.57;1.38;;;24.40;43.20;;;;;;4978057;28;20054;-60
2022/06/13 10:17:59;;;;;;;3.00;1.00;;;23.80;48.40;;;;;;5005341;28;20092;-51
2022/06/13 10:20:38;;;;;;;4.60;1.13;;;24.30;50.20;;;;;;5010507;28;20026;-54
2022/06/13 10:23:42;;;;;;;3.05;0.88;;;25.30;44.40;;;;;;5013422;28;20105;-63
2022/06/13 10:26:37;;;;;;;3.08;0.82;;;26.20;41.80;;;;;;5012893;28;20081;-53
2022/06/13 10:29:12;;;;;;;2.85;0.85;;;27.30;41.40;;;;;;5011078;28;20053;-57
2022/06/13 10:32:02;;;;;;;2.92;0.98;;;27.90;36.20;;;;;;5014697;28;20140;-54
2022/06/13 10:34:59;;;;;;;3.58;1.10;;;27.80;36.20;;;;;;5014904;28;20030;-57
2022/06/13 10:37:27;;;;;;;3.88;1.20;;;27.80;37.30;;;;;;5009678;28;20041;-54
2022/06/13 10:39:57;;;;;;;3.42;1.13;;;27.00;36.70;;;;;;5014675;28;20026;-55
2022/06/13 10:42:27;;;;;;;3.25;1.00;;;26.30;37.60;;;;;;5014790;28;20503;-56
2022/06/13 10:44:52;;;;;;;5.97;1.30;;;25.40;40.50;;;;;;5014693;28;20481;-51
2022/06/13 10:47:48;;;;;;;3.63;1.13;;;25.00;42.20;;;;;;5014188;28;20022;-59
2022/06/13 10:50:29;;;;;;;3.03;1.17;;;25.70;43.30;;;;;;5010637;28;20054;-56
2022/06/13 10:53:00;;;;;;;3.65;1.05;;;26.30;43.80;;;;;;5013808;28;20033;-54
2022/06/13 10:55:29;;;;;;;3.97;0.90;;;26.90;43.60;;;;;;5014390;28;20030;-60
2022/06/13 10:58:21;;;;;;;1.92;1.10;;;27.30;35.50;;;;;;5014518;28;20404;-51
2022/06/13 11:01:01;;;;;;;3.05;1.20;;;27.40;41.50;;;;;;5014602;28;20030;-52
2022/06/13 11:03:28;;;;;;;3.42;1.08;;;27.50;43.90;;;;;;5014180;28;20544;-52
2022/06/13 11:06:04;;;;;;;2.75;1.10;;;27.80;40.20;;;;;;5013114;28;20449;-47
2022/06/13 11:08:31;;;;;;;4.25;1.23;;;27.20;37.60;;;;;;5014143;28;20050;-51
2022/06/13 11:11:04;;;;;;;3.47;1.20;;;26.60;35.90;;;;;;5007148;28;20034;-54
2022/06/13 11:13:38;;;;;;;2.47;0.98;;;25.80;41.60;;;;;;5008675;28;20026;-60
2022/06/13 11:22:45;;;;;;;3.58;1.33;;;25.70;39.90;;;;;;4943484;28;20586;-51
2022/06/13 11:25:22;;;;;;;3.42;1.30;;;25.70;42.70;;;;;;5013895;28;20038;-44
2022/06/13 11:28:13;;;;;;;5.10;1.50;;;26.00;41.60;;;;;;5014063;28;20022;-44
2022/06/13 11:30:53;;;;;;;4.22;1.45;;;26.50;40.50;;;;;;5013752;28;20018;-54
2022/06/13 11:33:26;;;;;;;5.28;1.40;;;26.70;39.50;;;;;;5013350;28;20022;-45
2022/06/13 11:35:54;;;;;;;3.33;1.50;;;26.80;39.60;;;;;;5013359;28;20081;-57
2022/06/13 11:38:29;;;;;;;3.95;1.30;;;27.10;39.10;;;;;;5013908;28;20022;-53
2022/06/13 11:41:20;;;;;;;4.82;1.48;;;26.80;37.00;;;;;;5013200;28;20036;-59
2022/06/13 11:43:54;;;;;;;2.70;1.40;;;26.40;44.20;;;;;;5001919;28;20104;-49
2022/06/13 11:46:43;;;;;;;4.97;1.73;;;25.70;41.20;;;;;;4996458;28;20057;-55
2022/06/13 11:49:15;;;;;;;5.50;1.50;;;25.10;44.50;;;;;;5009544;28;20502;-50
2022/06/13 11:51:42;;;;;;;4.22;1.55;;;24.50;45.80;;;;;;5002087;28;20018;-55
2022/06/13 11:54:36;;;;;;;5.45;1.80;;;24.00;40.40;;;;;;5000125;28;20026;-53
2022/06/13 11:57:13;;;;;;;3.30;1.50;;;23.70;47.60;;;;;;4996968;28;20038;-58
2022/06/13 11:59:55;;;;;;;4.45;1.58;;;23.70;44.30;;;;;;4994927;28;20080;-53
2022/06/13 12:02:28;;;;;;;4.68;1.60;;;24.20;44.00;;;;;;5005948;28;20089;-55
2022/06/13 12:04:56;;;;;;;5.63;1.73;;;24.50;43.30;;;;;;5008101;28;20121;-47
2022/06/13 12:07:24;;;;;;;3.40;1.40;;;24.50;40.90;;;;;;5012998;28;20137;-52
2022/06/13 12:09:56;;;;;;;4.40;1.60;;;24.30;40.60;;;;;;5005251;28;20057;-47
2022/06/13 12:12:23;;;;;;;4.55;1.52;;;24.00;42.60;;;;;;5012965;28;20105;-57
2022/06/13 12:14:48;;;;;;;5.03;1.70;;;23.80;40.50;;;;;;5013012;28;20033;-53
2022/06/13 12:17:25;;;;;;;5.72;1.60;;;23.40;41.50;;;;;;5013002;28;20233;-50
2022/06/13 12:20:07;;;;;;;4.63;1.88;;;23.20;45.90;;;;;;5012971;28;20488;-57
2022/06/13 12:22:59;;;;;;;4.28;1.70;;;23.30;46.30;;;;;;5011966;28;20030;-46
2022/06/13 12:25:38;;;;;;;4.10;1.70;;;23.90;46.40;;;;;;4998426;28;20046;-56
2022/06/13 12:28:14;;;;;;;4.78;1.67;;;24.30;43.50;;;;;;5012949;28;20022;-54
2022/06/13 12:31:01;;;;;;;5.18;1.60;;;24.00;43.90;;;;;;5008134;28;20401;-43
2022/06/13 12:33:41;;;;;;;4.55;1.70;;;23.50;44.30;;;;;;5012712;28;20026;-48
2022/06/13 12:36:38;;;;;;;5.32;1.60;;;23.40;48.40;;;;;;5012574;28;20096;-50
2022/06/13 12:39:35;;;;;;;5.25;1.92;;;23.30;47.20;;;;;;5007267;28;20646;-51
2022/06/13 12:42:12;;;;;;;3.83;1.65;;;23.20;48.20;;;;;;5012242;28;20037;-53
2022/06/13 12:44:57;;;;;;;3.25;1.80;;;23.10;47.90;;;;;;5012153;28;20045;-53
2022/06/13 12:47:44;;;;;;;5.60;1.90;;;22.90;49.10;;;;;;5011325;28;20464;-57
2022/06/13 12:50:36;;;;;;;4.60;1.58;;;22.80;50.20;;;;;;5010789;28;20028;-59
2022/06/13 12:53:05;;;;;;;5.82;1.60;;;22.60;51.90;;;;;;5010953;28;20105;-53
2022/06/13 12:55:46;;;;;;;4.87;1.77;;;22.30;58.10;;;;;;5010563;28;20404;-47
2022/06/13 12:58:17;;;;;;;4.82;1.88;;;22.20;59.10;;;;;;5011194;28;20396;-52
2022/06/13 13:00:48;;;;;;;7.95;1.70;;;22.00;55.50;;;;;;5011894;28;20535;-50
2022/06/13 13:03:38;;;;;;;6.28;1.75;;;21.60;57.90;;;;;;5010920;28;20128;-53
2022/06/13 13:06:16;;;;;;;7.18;1.65;;;21.10;59.00;;;;;;5011735;28;20030;-46
2022/06/13 13:08:44;;;;;;;4.47;1.55;;;20.90;61.10;;;;;;5011076;28;20073;-48
2022/06/13 13:11:25;;;;;;;7.75;2.53;;;20.70;60.80;;;;;;5010789;28;20128;-59
2022/06/13 13:14:06;;;;;;;6.90;2.22;;;20.40;62.20;;;;;;5011856;28;20022;-47
2022/06/13 13:16:53;;;;;;;6.50;1.85;;;20.10;62.70;;;;;;5012210;28;20092;-55
2022/06/13 13:19:33;;;;;;;5.45;2.10;;;19.80;63.50;;;;;;5011905;28;20022;-58
2022/06/13 13:22:27;;;;;;;5.15;1.73;;;19.60;65.80;;;;;;5011760;28;20022;-55
2022/06/13 13:25:14;;;;;;;8.27;1.92;;;19.60;66.30;;;;;;5022153;28;20560;-55
2022/06/13 13:28:11;;;;;;;5.78;1.52;;;19.50;65.80;;;;;;5011609;28;20097;-50
2022/06/13 13:31:12;;;;;;;4.53;1.40;;;19.40;67.60;;;;;;5009708;28;20069;-57
2022/06/13 13:33:46;;;;;;;7.07;1.70;;;19.30;68.80;;;;;;5008432;28;20042;-57
2022/06/13 13:36:41;;;;;;;5.15;1.88;;;19.60;73.20;;;;;;5011633;28;20477;-56
2022/06/13 13:39:21;;;;;;;4.97;1.63;;;20.20;68.40;;;;;;5011439;28;20029;-58
2022/06/13 13:42:34;;;;;;;8.43;1.80;;;20.30;65.40;;;;;;5011516;28;20117;-57